Time;durP1;ratioP1;P1;durP2;ratioP2;P2;SDS_P1;SDS_P2;PMS_P1;PMS_P2;Temp;Humidity;BMP_temperature;BMP_pressure;BME280_temperature;BME280_humidity;BME280_pressure;Samples;Min_cycle;Max_cycle;Signal;HPM_P1;HPM_P2
2021/12/20 00:00:39;;;;;;;;;41.50;34.50;;;;;6.14;86.55;101848.50;5059217;28;45298;-65
2021/12/20 00:03:05;;;;;;;;;35.75;31.00;;;;;6.18;86.01;101849.38;5060122;28;45374;-65
2021/12/20 00:05:31;;;;;;;;;35.00;28.00;;;;;6.14;85.94;101837.19;5060037;28;45589;-64
2021/12/20 00:07:56;;;;;;;;;33.75;29.50;;;;;6.19;86.67;101831.97;5060649;28;45880;-63
2021/12/20 00:10:22;;;;;;;;;34.25;31.25;;;;;6.24;85.66;101840.66;5040874;28;45416;-67
2021/12/20 00:12:49;;;;;;;;;31.25;29.25;;;;;6.22;86.04;101843.25;5058473;28;45621;-64
2021/12/20 00:15:16;;;;;;;;;32.75;30.00;;;;;6.24;85.56;101836.28;5058387;28;45272;-64
2021/12/20 00:17:42;;;;;;;;;38.50;31.50;;;;;6.23;85.57;101831.94;5058483;28;45259;-67
2021/12/20 00:20:08;;;;;;;;;36.00;32.00;;;;;6.26;86.61;101828.47;5059265;28;45291;-65
2021/12/20 00:22:33;;;;;;;;;30.25;26.25;;;;;6.24;86.02;101827.59;5059356;28;45504;-65
2021/12/20 00:24:59;;;;;;;;;40.25;27.25;;;;;6.25;85.53;101830.19;5042576;28;45442;-64
2021/12/20 00:27:24;;;;;;;;;34.50;27.50;;;;;6.26;85.49;101839.78;5059638;28;45493;-64
2021/12/20 00:29:49;;;;;;;;;33.75;29.25;;;;;6.26;86.56;101836.31;5057852;28;45313;-64
2021/12/20 00:32:17;;;;;;;;;23.00;20.00;;;;;6.26;85.33;101831.94;5058304;28;45453;-64
2021/12/20 00:34:43;;;;;;;;;34.25;29.75;;;;;6.21;85.62;101820.63;5058148;28;45371;-63
2021/12/20 00:40:20;;;;;;;;;32.50;28.75;;;;;6.20;86.18;101829.34;5057556;28;45257;-63
2021/12/20 00:42:40;;;;;;;;;38.75;28.75;;;;;6.20;86.66;101831.09;5058066;28;45170;-65
2021/12/20 00:45:06;;;;;;;;;27.00;21.00;;;;;6.17;86.41;101826.72;5057555;28;45937;-64
2021/12/20 00:47:32;;;;;;;;;28.50;25.50;;;;;6.17;86.36;101824.09;5057732;28;45256;-63
2021/12/20 00:49:58;;;;;;;;;30.25;26.50;;;;;6.17;87.00;101824.09;5058355;28;45513;-65
2021/12/20 00:52:25;;;;;;;;;29.25;23.75;;;;;6.21;86.84;101822.38;5057456;28;45326;-65
2021/12/20 00:54:50;;;;;;;;;25.25;22.25;;;;;6.26;86.25;101813.63;5057633;28;45500;-65
2021/12/20 00:57:15;;;;;;;;;32.75;25.75;;;;;6.25;86.19;101821.50;5058037;28;45313;-65
2021/12/20 00:59:41;;;;;;;;;30.00;26.50;;;;;6.27;86.29;101822.38;5057855;28;45542;-65
2021/12/20 01:02:06;;;;;;;;;30.50;25.25;;;;;6.27;85.09;101819.75;5057779;28;45597;-64
2021/12/20 01:04:31;;;;;;;;;28.25;26.50;;;;;6.26;86.48;101812.78;5058157;28;46122;-64
2021/12/20 01:06:57;;;;;;;;;28.75;23.25;;;;;6.33;86.46;101813.63;5061324;28;45574;-64
2021/12/20 01:09:22;;;;;;;;;32.50;26.00;;;;;6.34;85.88;101812.75;5058485;28;45375;-65
2021/12/20 01:11:52;;;;;;;;;30.50;27.50;;;;;6.35;86.10;101793.56;5057578;28;45398;-64
2021/12/20 01:14:24;;;;;;;;;33.75;28.50;;;;;6.40;85.28;101797.06;5056932;28;46309;-65
2021/12/20 01:16:50;;;;;;;;;32.50;26.50;;;;;6.42;85.66;101801.41;5056883;28;45425;-65
2021/12/20 01:19:16;;;;;;;;;34.75;29.75;;;;;6.38;85.96;101793.59;5057715;28;45335;-65
2021/12/20 01:21:42;;;;;;;;;32.50;25.75;;;;;6.47;85.52;101801.41;5060768;28;45251;-65
2021/12/20 01:24:07;;;;;;;;;36.50;29.00;;;;;6.47;85.16;101793.56;5059168;28;45569;-63
2021/12/20 01:26:33;;;;;;;;;34.00;28.25;;;;;6.50;85.75;101793.56;5057183;28;45528;-65
2021/12/20 01:28:58;;;;;;;;;30.25;27.75;;;;;6.43;84.46;101782.25;5059052;28;45289;-63
2021/12/20 01:31:23;;;;;;;;;30.50;26.50;;;;;6.42;84.36;101790.09;5061041;28;44981;-64
2021/12/20 01:33:49;;;;;;;;;35.00;27.00;;;;;6.37;85.09;101795.31;5057633;28;45287;-63
2021/12/20 01:36:14;;;;;;;;;33.75;29.00;;;;;6.36;84.81;101796.19;5060389;28;45454;-65
2021/12/20 01:38:40;;;;;;;;;30.25;24.00;;;;;6.28;84.10;101798.81;5066258;28;45258;-70
2021/12/20 01:41:07;;;;;;;;;29.00;26.50;;;;;6.27;85.44;101788.38;5064364;28;45703;-64
2021/12/20 01:43:32;;;;;;;;;41.00;28.75;;;;;6.23;84.26;101790.13;5057063;28;47105;-62
2021/12/20 01:45:59;;;;;;;;;38.25;32.00;;;;;6.22;83.75;101803.22;5056930;28;45481;-63
2021/12/20 01:48:24;;;;;;;;;29.50;25.75;;;;;6.12;84.92;101797.13;5057652;28;45348;-63
2021/12/20 01:51:17;;;;;;;;;30.75;23.75;;;;;6.10;84.22;101796.25;5058644;28;45644;-63
2021/12/20 01:53:38;;;;;;;;;36.50;29.00;;;;;6.04;84.69;101788.44;5058945;28;45375;-65
2021/12/20 01:56:04;;;;;;;;;31.00;25.50;;;;;6.03;84.42;101791.91;5021879;28;45478;-65
2021/12/20 01:58:30;;;;;;;;;38.00;29.25;;;;;5.97;84.54;101792.78;5057671;28;45512;-65
2021/12/20 02:03:38;;;;;;;;;45.50;35.00;;;;;5.91;84.07;101772.75;5056147;28;45366;-63
2021/12/20 02:06:07;;;;;;;;;42.00;34.00;;;;;5.92;85.13;101779.72;5055006;28;45382;-62
2021/12/20 02:08:33;;;;;;;;;38.25;31.75;;;;;5.88;85.47;101771.91;5056747;28;45308;-64
2021/12/20 02:11:03;;;;;;;;;30.00;30.00;;;;;5.93;85.70;101781.47;5056696;28;45296;-63
2021/12/20 02:13:30;;;;;;;;;43.75;35.75;;;;;5.96;84.85;101773.63;5056313;28;46249;-64
2021/12/20 02:15:59;;;;;;;;;49.75;38.00;;;;;6.04;85.26;101772.75;5057135;28;45546;-63
2021/12/20 02:18:25;;;;;;;;;48.75;36.00;;;;;6.07;84.30;101772.75;5059536;28;45327;-64
2021/12/20 02:20:51;;;;;;;;;47.00;36.00;;;;;6.12;85.27;101777.13;5057458;28;45601;-64
2021/12/20 02:23:16;;;;;;;;;47.00;36.50;;;;;6.16;84.04;101783.19;5058112;28;45382;-64
2021/12/20 02:25:42;;;;;;;;;42.75;35.75;;;;;6.11;85.16;101769.25;5056220;28;45394;-66
2021/12/20 02:28:10;;;;;;;;;48.75;37.25;;;;;6.14;84.49;101779.69;5056241;28;45347;-65
2021/12/20 02:38:49;;;;;;;;;51.00;40.00;;;;;6.31;85.03;101771.84;5058876;28;45128;-64
2021/12/20 02:41:25;;;;;;;;;44.75;36.50;;;;;6.34;84.99;101771.81;5056375;28;45394;-66
2021/12/20 02:43:58;;;;;;;;;51.75;40.50;;;;;6.39;84.42;101775.28;5055839;28;45475;-65
2021/12/20 02:48:56;;;;;;;;;50.00;40.25;;;;;6.37;83.55;101761.34;5055658;28;45267;-64
2021/12/20 02:51:26;;;;;;;;;49.00;37.25;;;;;6.31;84.57;101758.75;5038092;28;45388;-65
2021/12/20 02:53:52;;;;;;;;;52.00;40.75;;;;;6.26;84.08;101766.59;5055559;28;46077;-64
2021/12/20 02:56:18;;;;;;;;;48.75;35.50;;;;;6.22;84.46;101766.63;5056794;28;45299;-65
2021/12/20 02:58:44;;;;;;;;;45.25;37.00;;;;;6.21;84.51;101768.34;5056632;28;45297;-63
2021/12/20 03:01:09;;;;;;;;;49.50;37.25;;;;;6.26;84.86;101770.97;5056314;28;45195;-65
2021/12/20 03:03:34;;;;;;;;;51.00;41.50;;;;;6.31;83.96;101768.34;5056341;28;45266;-63
2021/12/20 03:06:09;;;;;;;;;50.00;39.00;;;;;6.33;84.08;101753.50;5060435;28;45323;-64
2021/12/20 03:08:36;;;;;;;;;47.00;40.25;;;;;6.40;84.80;101756.13;5056076;28;45331;-64
2021/12/20 03:11:01;;;;;;;;;47.50;38.75;;;;;6.43;83.63;101756.09;5055577;28;45244;-65
2021/12/20 03:13:26;;;;;;;;;47.25;35.50;;;;;6.38;83.80;101752.63;5055436;28;45277;-66
2021/12/20 03:15:52;;;;;;;;;45.25;34.25;;;;;6.32;84.15;101752.66;5037373;28;45293;-63
2021/12/20 03:18:17;;;;;;;;;48.50;37.00;;;;;6.31;83.51;101750.91;5055456;28;45252;-64
2021/12/20 03:20:43;;;;;;;;;52.75;37.50;;;;;6.35;84.65;101743.94;5055945;28;45497;-65
2021/12/20 03:23:08;;;;;;;;;48.50;40.50;;;;;6.41;84.25;101738.69;5055511;28;45407;-65
2021/12/20 03:25:33;;;;;;;;;44.25;35.25;;;;;6.44;84.53;101738.69;5057060;28;45323;-63
2021/12/20 03:27:59;;;;;;;;;50.25;39.00;;;;;6.47;83.92;101736.06;5057586;28;45250;-64
2021/12/20 03:30:25;;;;;;;;;48.50;38.50;;;;;6.53;84.02;101730.81;5056560;28;45621;-62
2021/12/20 03:32:51;;;;;;;;;51.00;37.75;;;;;6.55;84.03;101741.22;5060179;28;46014;-63
2021/12/20 03:35:16;;;;;;;;;46.75;37.25;;;;;6.55;82.63;101738.63;5056563;28;45450;-64
2021/12/20 03:37:43;;;;;;;;;49.75;37.50;;;;;6.52;83.69;101731.69;5058050;28;45326;-65
2021/12/20 03:40:09;;;;;;;;;46.75;35.25;;;;;6.54;83.03;101729.94;5056712;28;45346;-65
2021/12/20 03:42:35;;;;;;;;;46.50;37.50;;;;;6.48;82.63;101727.34;5055075;28;46112;-65
2021/12/20 03:45:01;;;;;;;;;51.25;39.75;;;;;6.43;83.24;101729.97;5055378;28;45325;-65
2021/12/20 03:47:26;;;;;;;;;45.75;36.00;;;;;6.40;82.65;101729.97;5058083;28;45303;-63
2021/12/20 03:49:52;;;;;;;;;44.50;33.50;;;;;6.38;82.08;101720.41;5056971;28;45407;-64
2021/12/20 03:52:17;;;;;;;;;43.50;36.50;;;;;6.28;82.68;101723.03;5056041;28;46115;-64
2021/12/20 03:54:42;;;;;;;;;45.75;36.50;;;;;6.21;82.86;101723.94;5057495;28;45377;-63
2021/12/20 03:57:08;;;;;;;;;45.00;35.75;;;;;6.18;83.50;101718.72;5059120;28;45421;-65
2021/12/20 03:59:34;;;;;;;;;44.00;35.50;;;;;6.22;82.55;101722.22;5059265;28;45288;-64
2021/12/20 04:02:00;;;;;;;;;50.50;37.25;;;;;6.26;83.01;101729.16;5061396;28;46829;-64
2021/12/20 04:04:25;;;;;;;;;46.25;38.00;;;;;6.25;83.11;101725.66;5065086;28;45446;-64
2021/12/20 04:06:51;;;;;;;;;46.25;37.00;;;;;6.32;83.60;101721.31;5059031;28;45475;-64
2021/12/20 04:09:16;;;;;;;;;37.75;33.75;;;;;6.33;83.12;101732.59;5057832;28;45385;-63
2021/12/20 04:11:42;;;;;;;;;39.75;34.50;;;;;6.22;82.24;101723.06;5060576;28;46263;-64
2021/12/20 04:14:07;;;;;;;;;37.00;33.50;;;;;6.19;83.13;101722.22;5058200;28;45415;-63
2021/12/20 04:16:36;;;;;;;;;42.25;35.50;;;;;6.18;83.25;101723.94;5058349;28;45436;-64
2021/12/20 04:19:01;;;;;;;;;48.50;35.25;;;;;6.18;83.96;101728.31;5058351;28;45221;-63
2021/12/20 04:21:27;;;;;;;;;37.00;28.75;;;;;6.23;82.75;101727.41;5057547;28;46611;-64
2021/12/20 04:23:52;;;;;;;;;51.00;36.00;;;;;6.22;83.63;101735.28;5058304;28;45701;-63
2021/12/20 04:26:18;;;;;;;;;49.25;39.00;;;;;6.22;83.68;101735.28;5058000;28;45243;-61
2021/12/20 04:28:43;;;;;;;;;46.75;35.75;;;;;6.16;84.04;101730.94;5058304;28;45450;-62
2021/12/20 04:31:08;;;;;;;;;50.25;38.50;;;;;6.16;83.75;101746.59;5057697;28;45423;-63
2021/12/20 04:33:34;;;;;;;;;47.50;39.00;;;;;6.13;84.67;101733.56;5057710;28;45310;-62
2021/12/20 04:36:00;;;;;;;;;49.00;38.50;;;;;6.07;83.86;101728.34;5058232;28;45311;-64
2021/12/20 04:38:28;;;;;;;;;48.75;38.00;;;;;6.07;84.68;101726.63;5059634;28;45516;-63
2021/12/20 04:40:54;;;;;;;;;51.00;40.75;;;;;6.14;84.32;101738.78;5058694;28;45316;-63
2021/12/20 04:43:19;;;;;;;;;49.75;38.00;;;;;6.17;84.47;101722.22;5058021;28;45319;-63
2021/12/20 04:45:44;;;;;;;;;43.75;35.50;;;;;6.22;84.42;101724.81;5039676;28;45412;-64
2021/12/20 04:48:10;;;;;;;;;47.50;36.75;;;;;6.21;84.13;101726.56;5058121;28;45220;-65
2021/12/20 04:50:36;;;;;;;;;50.50;38.00;;;;;6.20;83.50;101721.34;5058496;28;46447;-65
2021/12/20 04:53:02;;;;;;;;;48.50;37.00;;;;;6.17;83.62;101716.13;5057931;28;45295;-63
2021/12/20 04:55:28;;;;;;;;;43.00;36.25;;;;;6.18;84.40;101728.31;5058573;28;45277;-64
2021/12/20 04:57:54;;;;;;;;;44.75;37.25;;;;;6.20;84.09;101723.97;5059648;28;45553;-64
2021/12/20 05:00:30;;;;;;;;;49.00;38.25;;;;;6.23;84.48;101726.56;5058369;28;45507;-61
2021/12/20 05:02:56;;;;;;;;;43.75;32.25;;;;;6.23;84.27;101729.19;5058608;28;45450;-62
2021/12/20 05:05:22;;;;;;;;;35.25;31.25;;;;;6.22;83.59;101730.91;5057314;28;45539;-62
2021/12/20 05:07:48;;;;;;;;;49.50;37.00;;;;;6.27;84.23;101736.13;5057691;28;45417;-62
2021/12/20 05:10:38;;;;;;;;;48.75;37.75;;;;;6.12;84.12;101710.91;5039505;28;46936;-62
2021/12/20 05:13:07;;;;;;;;;45.25;38.00;;;;;6.26;83.91;101732.63;5058332;28;45374;-62
2021/12/20 05:15:33;;;;;;;;;46.00;35.25;;;;;6.25;83.41;101733.50;5060499;28;45430;-65
2021/12/20 05:17:59;;;;;;;;;51.75;37.75;;;;;6.26;83.82;101732.63;5043737;28;45272;-64
2021/12/20 05:20:26;;;;;;;;;42.00;34.00;;;;;6.22;83.08;101723.06;5057787;28;45251;-62
2021/12/20 05:22:52;;;;;;;;;43.50;34.50;;;;;6.25;83.44;101740.50;5057038;28;45248;-62
2021/12/20 05:25:17;;;;;;;;;45.75;35.50;;;;;6.21;83.20;101744.84;5040015;28;45444;-64
2021/12/20 05:27:43;;;;;;;;;49.50;37.00;;;;;6.24;84.36;101743.97;5060817;28;45494;-66
2021/12/20 05:30:10;;;;;;;;;43.25;34.00;;;;;6.27;83.70;101738.75;5059758;28;45907;-63
2021/12/20 05:32:36;;;;;;;;;35.00;31.50;;;;;6.23;83.85;101729.19;5056875;28;45334;-63
2021/12/20 05:35:03;;;;;;;;;38.50;32.50;;;;;6.25;84.18;101728.28;5056925;28;45320;-64
2021/12/20 05:37:29;;;;;;;;;40.75;35.00;;;;;6.28;83.40;101728.28;5057373;28;45311;-63
2021/12/20 05:39:54;;;;;;;;;41.50;33.25;;;;;6.29;83.76;101727.41;5056637;28;45359;-65
2021/12/20 05:42:19;;;;;;;;;46.50;36.25;;;;;6.36;84.74;101727.38;5058616;28;45403;-66
2021/12/20 05:44:45;;;;;;;;;46.75;33.75;;;;;6.37;83.43;101726.53;5059871;28;45275;-63
2021/12/20 05:47:10;;;;;;;;;39.50;32.75;;;;;6.36;83.03;101727.38;5057622;28;45333;-67
2021/12/20 05:49:35;;;;;;;;;45.25;34.00;;;;;6.29;82.56;101726.53;5057315;28;45358;-64
2021/12/20 05:52:03;;;;;;;;;48.00;34.25;;;;;6.27;82.49;101734.38;5039854;28;45279;-63
2021/12/20 05:54:29;;;;;;;;;32.75;27.00;;;;;6.19;83.51;101725.69;5058440;28;45426;-63
2021/12/20 05:56:54;;;;;;;;;37.75;32.25;;;;;6.26;82.96;101739.63;5056921;28;45328;-64
2021/12/20 05:59:20;;;;;;;;;40.75;32.75;;;;;6.23;82.87;101735.25;5056347;28;46095;-63
2021/12/20 06:01:45;;;;;;;;;44.50;31.75;;;;;6.21;81.87;101737.00;5038505;28;45280;-64
2021/12/20 06:04:10;;;;;;;;;37.25;32.50;;;;;6.17;82.86;101732.66;5056675;28;45586;-63
2021/12/20 06:06:36;;;;;;;;;41.00;30.75;;;;;6.09;82.83;101729.22;5057293;28;45529;-63
2021/12/20 06:09:02;;;;;;;;;39.75;30.75;;;;;6.14;82.36;101741.41;5056785;28;45353;-64
2021/12/20 06:11:27;;;;;;;;;39.75;32.50;;;;;6.10;82.12;101736.19;5057745;28;45372;-64
2021/12/20 06:13:53;;;;;;;;;35.75;31.75;;;;;5.89;82.67;101717.03;5057348;28;45235;-62
2021/12/20 06:16:19;;;;;;;;;42.50;31.50;;;;;5.98;82.59;101734.44;5057566;28;45242;-66
2021/12/20 06:18:44;;;;;;;;;43.00;31.00;;;;;6.01;83.09;101730.97;5056092;28;46606;-65
2021/12/20 06:21:10;;;;;;;;;35.50;30.75;;;;;6.06;82.83;101730.09;5057503;28;45195;-64
2021/12/20 06:23:35;;;;;;;;;36.75;28.25;;;;;6.07;82.16;101736.19;5058277;28;45252;-65
2021/12/20 06:26:02;;;;;;;;;37.75;31.50;;;;;6.06;82.38;101726.59;5058758;28;45217;-67
2021/12/20 06:28:28;;;;;;;;;36.75;28.00;;;;;6.04;83.12;101738.81;5057249;28;45328;-66
2021/12/20 06:30:53;;;;;;;;;25.25;22.25;;;;;6.02;82.29;101732.72;5058975;28;45496;-63
2021/12/20 06:33:19;;;;;;;;;37.00;29.50;;;;;6.06;82.90;101740.56;5056671;28;45387;-65
2021/12/20 06:35:45;;;;;;;;;36.25;27.50;;;;;6.10;82.39;101738.78;5039768;28;45504;-63
2021/12/20 06:38:17;;;;;;;;;43.75;37.00;;;;;6.16;83.78;101748.38;5055779;28;46972;-64
2021/12/20 06:40:42;;;;;;;;;33.00;25.00;;;;;6.16;82.14;101745.75;5055841;28;45227;-65
2021/12/20 06:43:08;;;;;;;;;37.50;32.00;;;;;6.21;82.27;101749.22;5055779;28;45552;-65
2021/12/20 06:45:34;;;;;;;;;35.25;29.50;;;;;6.23;81.74;101750.09;5057746;28;45427;-62
2021/12/20 06:48:00;;;;;;;;;38.00;30.00;;;;;6.25;82.25;101761.41;5068720;28;46184;-64
2021/12/20 06:50:25;;;;;;;;;33.25;28.50;;;;;6.22;82.45;101746.59;5066795;28;45390;-65
2021/12/20 06:52:51;;;;;;;;;39.00;30.50;;;;;6.33;81.76;101761.34;5060564;28;45467;-67
2021/12/20 06:55:16;;;;;;;;;26.50;24.75;;;;;6.30;81.68;101754.41;5056366;28;45434;-64
2021/12/20 06:57:42;;;;;;;;;36.75;25.00;;;;;6.31;81.62;101763.09;5056051;28;46939;-62
2021/12/20 07:00:07;;;;;;;;;29.25;27.50;;;;;6.26;82.23;101761.38;5038643;28;45280;-63
2021/12/20 07:02:33;;;;;;;;;29.50;25.00;;;;;6.22;81.31;101764.03;5056603;28;45343;-65
2021/12/20 07:04:58;;;;;;;;;36.50;32.25;;;;;6.21;81.00;101765.75;5056268;28;45288;-64
2021/12/20 07:07:23;;;;;;;;;39.50;33.00;;;;;6.25;81.76;101767.47;5055137;28;51172;-65
2021/12/20 07:09:49;;;;;;;;;35.75;30.50;;;;;6.28;82.11;101761.38;5055351;28;45413;-64
2021/12/20 07:12:14;;;;;;;;;34.25;26.00;;;;;6.36;80.95;101764.84;5055583;28;45289;-64
2021/12/20 07:14:40;;;;;;;;;39.50;30.50;;;;;6.24;80.60;101750.06;5038012;28;45557;-63
2021/12/20 07:17:06;;;;;;;;;33.00;30.25;;;;;6.25;81.62;101767.47;5057733;28;46340;-64
2021/12/20 07:19:31;;;;;;;;;26.00;23.75;;;;;6.21;80.39;101760.53;5055869;28;45235;-64
2021/12/20 07:21:57;;;;;;;;;33.25;27.25;;;;;6.16;81.02;101762.28;5056422;28;45279;-64
2021/12/20 07:24:22;;;;;;;;;26.75;24.00;;;;;6.11;80.39;101764.03;5057268;28;45244;-65
2021/12/20 07:26:47;;;;;;;;;27.50;27.00;;;;;6.03;81.13;101768.41;5056003;28;46009;-63
2021/12/20 07:29:13;;;;;;;;;26.75;25.50;;;;;6.03;81.73;101765.81;5056219;28;45495;-62
2021/12/20 07:31:38;;;;;;;;;22.25;20.00;;;;;5.97;81.04;101777.13;5059332;28;45404;-63
2021/12/20 07:34:07;;;;;;;;;27.50;24.00;;;;;5.89;80.67;101766.66;5041518;28;45368;-64
2021/12/20 07:36:32;;;;;;;;;28.75;24.75;;;;;5.90;81.40;101771.00;5058962;28;47167;-62
2021/12/20 07:38:59;;;;;;;;;30.00;26.75;;;;;5.87;82.11;101765.81;5059696;28;45310;-63
2021/12/20 07:41:25;;;;;;;;;29.50;29.25;;;;;5.89;81.56;101764.06;5058448;28;45261;-64
2021/12/20 07:43:51;;;;;;;;;28.75;24.25;;;;;5.94;81.73;101772.75;5059768;28;45645;-62
2021/12/20 07:46:17;;;;;;;;;26.25;25.25;;;;;6.01;81.67;101780.59;5060327;28;46815;-62
2021/12/20 07:48:43;;;;;;;;;39.50;31.75;;;;;6.02;80.85;101771.91;5058238;28;45304;-63
2021/12/20 07:51:08;;;;;;;;;34.25;29.50;;;;;5.91;80.86;101754.47;5058085;28;45458;-62
2021/12/20 07:53:34;;;;;;;;;37.00;31.00;;;;;5.94;80.59;101771.91;5058930;28;45311;-63
2021/12/20 07:56:00;;;;;;;;;30.50;26.75;;;;;5.94;80.55;101767.53;5058292;28;45691;-64
2021/12/20 07:58:26;;;;;;;;;35.75;29.25;;;;;5.97;80.83;101766.66;5058253;28;45415;-64
2021/12/20 08:00:51;;;;;;;;;41.00;32.25;;;;;6.00;80.95;101766.66;5059391;28;45238;-63
2021/12/20 08:03:17;;;;;;;;;40.00;32.50;;;;;6.03;81.33;101765.81;5063523;28;45320;-63
2021/12/20 08:05:43;;;;;;;;;38.00;31.25;;;;;6.03;81.20;101765.81;5059316;28;45929;-63
2021/12/20 08:08:09;;;;;;;;;33.50;29.50;;;;;6.08;81.70;101769.28;5061268;28;45381;-64
2021/12/20 08:10:35;;;;;;;;;34.75;30.00;;;;;6.11;80.71;101769.25;5061073;28;45243;-64
2021/12/20 08:13:01;;;;;;;;;35.75;31.00;;;;;6.14;81.34;101775.38;5058411;28;45609;-69
2021/12/20 08:15:27;;;;;;;;;35.75;26.50;;;;;6.14;80.05;101774.47;5058161;28;45366;-75
2021/12/20 08:17:54;;;;;;;;;36.50;28.50;;;;;6.09;80.17;101777.13;5057914;28;45446;-72
2021/12/20 08:20:20;;;;;;;;;31.00;26.50;;;;;6.04;80.69;101760.59;5057880;28;45388;-67
2021/12/20 08:22:46;;;;;;;;;41.00;27.00;;;;;6.13;80.64;101777.97;5057926;28;45336;-67
2021/12/20 08:25:12;;;;;;;;;40.75;32.50;;;;;6.18;81.11;101777.97;5057219;28;45445;-70
2021/12/20 08:27:38;;;;;;;;;33.75;29.50;;;;;6.21;79.82;101788.41;5057180;28;45560;-70
2021/12/20 08:30:05;;;;;;;;;36.50;31.25;;;;;6.16;79.17;101788.41;5056669;27;45848;-72
2021/12/20 08:32:30;;;;;;;;;33.75;25.25;;;;;6.13;80.87;101791.91;5058132;28;45568;-66
2021/12/20 08:34:56;;;;;;;;;40.25;32.50;;;;;6.17;80.44;101794.53;5065085;28;45415;-60
2021/12/20 08:37:22;;;;;;;;;38.25;31.00;;;;;6.23;79.92;101797.97;5067229;28;45424;-64
2021/12/20 08:39:47;;;;;;;;;36.00;31.50;;;;;6.26;80.33;101799.72;5071543;28;45361;-68
2021/12/20 08:42:12;;;;;;;;;37.25;32.50;;;;;6.31;80.03;101802.31;5061134;28;45586;-62
2021/12/20 08:44:39;;;;;;;;;42.00;33.50;;;;;6.25;80.77;101782.31;5068278;28;46376;-67
2021/12/20 08:47:05;;;;;;;;;34.75;32.00;;;;;6.39;80.33;101801.41;5071382;27;45479;-67
2021/12/20 08:49:31;;;;;;;;;40.25;33.75;;;;;6.41;81.04;101794.44;5071944;28;45385;-66
2021/12/20 08:51:56;;;;;;;;;42.25;30.75;;;;;6.41;79.21;101794.44;5066438;28;45380;-66
2021/12/20 08:54:24;;;;;;;;;41.00;31.50;;;;;6.37;77.83;101807.53;5076748;28;45416;-66
2021/12/20 08:56:51;;;;;;;;;35.25;28.75;;;;;6.33;78.43;101811.91;5063314;27;45441;-64
2021/12/20 08:59:17;;;;;;;;;38.25;33.25;;;;;6.28;79.51;101803.19;5077907;27;45257;-65
2021/12/20 09:01:42;;;;;;;;;38.75;29.00;;;;;6.37;78.50;101808.41;5064345;28;45541;-65
2021/12/20 09:04:08;;;;;;;;;33.00;32.00;;;;;6.43;79.43;101812.75;5074196;28;45276;-62
2021/12/20 09:06:38;;;;;;;;;41.50;31.00;;;;;6.45;79.48;101816.22;5050528;28;45510;-63
2021/12/20 09:09:03;;;;;;;;;37.75;30.25;;;;;6.46;78.68;101812.75;5055082;28;45367;-62
2021/12/20 09:11:28;;;;;;;;;39.00;32.00;;;;;6.49;78.76;101822.31;5057831;28;45640;-63
2021/12/20 09:13:54;;;;;;;;;43.50;33.00;;;;;6.50;78.88;101811.84;5071605;28;45913;-66
2021/12/20 09:16:20;;;;;;;;;39.25;33.00;;;;;6.56;77.96;101811.84;5074849;28;45837;-65
2021/12/20 09:18:45;;;;;;;;;37.75;30.50;;;;;6.60;78.88;101815.28;5052911;28;45384;-66
2021/12/20 09:21:11;;;;;;;;;43.75;32.00;;;;;6.60;78.09;101801.34;5062615;28;45654;-65
2021/12/20 09:23:40;;;;;;;;;41.25;31.25;;;;;6.73;77.70;101813.50;5048810;28;45959;-76
2021/12/20 09:26:06;;;;;;;;;43.25;34.50;;;;;6.72;77.56;101815.22;5042623;28;45526;-64
2021/12/20 09:28:33;;;;;;;;;44.00;34.00;;;;;6.76;77.44;101815.22;5052190;28;45560;-68
2021/12/20 09:31:00;;;;;;;;;45.00;36.50;;;;;6.75;77.61;101811.75;5065876;28;45445;-69
2021/12/20 09:33:26;;;;;;;;;48.25;38.25;;;;;6.72;76.64;101811.75;5074202;28;45753;-69
2021/12/20 09:35:53;;;;;;;;;40.50;34.00;;;;;6.69;76.75;101820.47;5062662;27;45344;-66
2021/12/20 09:38:20;;;;;;;;;37.50;30.75;;;;;6.64;76.59;101814.41;5073521;28;45378;-69
2021/12/20 09:43:36;;;;;;;;;38.00;33.25;;;;;6.63;76.02;101817.88;5063655;27;45312;-69
2021/12/20 09:46:02;;;;;;;;;35.00;31.50;;;;;6.62;76.34;101820.53;5072561;28;45533;-65
2021/12/20 09:48:27;;;;;;;;;42.50;34.75;;;;;6.61;76.21;101821.41;5059735;28;45438;-68
2021/12/20 09:50:53;;;;;;;;;34.75;32.00;;;;;6.56;76.50;101818.78;5068140;28;45321;-70
2021/12/20 09:53:18;;;;;;;;;42.00;33.50;;;;;6.50;75.78;101819.69;5057329;28;45975;-65
2021/12/20 09:55:49;;;;;;;;;48.75;35.00;;;;;6.51;76.77;101820.56;5070737;28;45535;-68
2021/12/20 09:58:15;;;;;;;;;38.75;33.75;;;;;6.49;75.98;101822.31;5059254;28;45380;-69
2021/12/20 10:00:40;;;;;;;;;34.25;31.25;;;;;6.51;76.71;101818.81;5066629;28;45407;-68
2021/12/20 10:03:06;;;;;;;;;36.00;30.75;;;;;6.53;76.22;101824.91;5075084;28;46697;-66
2021/12/20 10:05:34;;;;;;;;;36.75;31.25;;;;;6.57;75.88;101828.38;5069973;28;45505;-62
2021/12/20 10:08:02;;;;;;;;;35.25;31.75;;;;;6.60;75.93;101825.75;5037285;28;45523;-64
2021/12/20 10:10:41;;;;;;;;;32.75;30.50;;;;;6.63;76.04;101817.88;5053410;28;45770;-64
2021/12/20 10:13:18;;;;;;;;;30.75;29.00;;;;;6.65;75.75;101823.97;5047421;28;46245;-67
2021/12/20 10:15:43;;;;;;;;;33.50;27.50;;;;;6.67;75.84;101826.59;5059322;27;45440;-63
2021/12/20 10:18:14;;;;;;;;;42.00;30.25;;;;;6.72;76.95;101824.84;5057104;28;45447;-62
2021/12/20 10:20:40;;;;;;;;;41.75;31.25;;;;;6.80;75.95;101828.28;5060453;28;45233;-65
2021/12/20 10:23:19;;;;;;;;;39.75;34.00;;;;;6.79;74.58;101820.44;5069862;28;46739;-64
2021/12/20 10:25:47;;;;;;;;;40.00;32.75;;;;;6.75;75.45;101822.22;5076164;27;45455;-64
2021/12/20 10:28:15;;;;;;;;;32.00;27.75;;;;;6.78;76.00;101809.13;5077617;27;45418;-65
2021/12/20 10:30:46;;;;;;;;;33.75;28.75;;;;;6.82;75.84;101821.31;5061321;28;45482;-67
2021/12/20 10:33:15;;;;;;;;;30.25;29.25;;;;;6.84;75.53;101819.56;5068624;28;45418;-65
2021/12/20 10:35:50;;;;;;;;;32.00;27.00;;;;;6.88;76.11;101820.41;5062553;28;45493;-64
2021/12/20 10:38:38;;;;;;;;;33.50;25.50;;;;;6.90;75.58;101821.28;5061809;28;45320;-64
2021/12/20 10:41:10;;;;;;;;;29.50;29.25;;;;;6.90;75.43;101815.16;5067073;28;45485;-65
2021/12/20 10:43:40;;;;;;;;;31.00;27.25;;;;;6.87;75.45;101808.19;5059761;28;45685;-64
2021/12/20 10:46:16;;;;;;;;;31.50;26.25;;;;;6.85;74.82;101807.34;5035535;28;45439;-61
2021/12/20 10:48:44;;;;;;;;;28.25;24.25;;;;;6.86;74.96;101803.84;5070755;28;45358;-64
2021/12/20 10:51:25;;;;;;;;;28.25;25.25;;;;;6.84;74.19;101803.84;5057899;28;46799;-72
2021/12/20 10:53:58;;;;;;;;;29.25;20.00;;;;;6.83;74.52;101806.47;5050413;28;46261;-70
2021/12/20 10:56:24;;;;;;;;;26.75;23.50;;;;;6.78;74.57;101796.03;5054984;28;45472;-67
2021/12/20 10:58:51;;;;;;;;;27.50;24.50;;;;;6.79;74.61;101797.78;5048991;28;45352;-63
2021/12/20 11:03:59;;;;;;;;;27.50;22.25;;;;;6.84;74.70;101806.47;5058292;28;46049;-67
2021/12/20 11:06:26;;;;;;;;;20.50;19.75;;;;;6.86;75.89;101804.72;5066235;28;45440;-66
2021/12/20 11:09:05;;;;;;;;;23.25;21.50;;;;;6.94;76.06;101806.44;5073021;27;45470;-64
2021/12/20 11:11:40;;;;;;;;;20.75;20.75;;;;;7.00;75.07;101802.03;5058708;28;45583;-66
2021/12/20 11:14:08;;;;;;;;;24.25;21.00;;;;;7.07;74.32;101792.41;5075609;28;46368;-61
2021/12/20 11:16:46;;;;;;;;;23.00;19.25;;;;;7.12;74.84;101790.63;5077412;28;45464;-63
2021/12/20 11:19:11;;;;;;;;;57.25;46.50;;;;;7.16;75.76;101788.88;5067917;28;45331;-63
2021/12/20 11:21:44;;;;;;;;;29.75;24.00;;;;;7.25;73.87;101801.00;5072676;28;45481;-63
2021/12/20 11:24:43;;;;;;;;;21.75;20.00;;;;;7.16;72.15;101784.50;5052339;28;45425;-65
2021/12/20 11:27:15;;;;;;;;;26.50;21.00;;;;;7.12;72.69;101789.75;5068497;28;45337;-63
2021/12/20 11:29:42;;;;;;;;;28.25;22.25;;;;;7.09;73.25;101782.78;5061356;28;45382;-63
2021/12/20 11:32:09;;;;;;;;;23.25;22.00;;;;;7.12;75.66;101780.16;5074811;28;45432;-65
2021/12/20 11:34:37;;;;;;;;;24.75;20.75;;;;;7.20;73.33;101771.38;5064477;28;46409;-66
2021/12/20 11:37:02;;;;;;;;;26.50;21.25;;;;;7.26;72.88;101776.56;5066252;27;45351;-62